sensor_id;sensor_type;location;lat;lon;timestamp;temperature;humidity
78054;DHT22;67726;45.636;11.752;2024-03-17T00:00:59;12.70;99.90
78054;DHT22;67726;45.636;11.752;2024-03-17T00:03:25;12.70;99.90
78054;DHT22;67726;45.636;11.752;2024-03-17T00:05:58;12.70;99.90
78054;DHT22;67726;45.636;11.752;2024-03-17T00:08:24;12.70;99.90
78054;DHT22;67726;45.636;11.752;2024-03-17T00:10:54;12.70;99.90
78054;DHT22;67726;45.636;11.752;2024-03-17T00:13:20;12.60;99.90
78054;DHT22;67726;45.636;11.752;2024-03-17T00:15:47;12.60;99.90
78054;DHT22;67726;45.636;11.752;2024-03-17T00:18:12;12.60;99.90
78054;DHT22;67726;45.636;11.752;2024-03-17T00:20:38;12.60;99.90
78054;DHT22;67726;45.636;11.752;2024-03-17T00:23:04;12.50;99.90
78054;DHT22;67726;45.636;11.752;2024-03-17T00:25:34;12.40;99.90
78054;DHT22;67726;45.636;11.752;2024-03-17T00:28:01;12.50;99.90
78054;DHT22;67726;45.636;11.752;2024-03-17T00:30:26;12.30;99.90
78054;DHT22;67726;45.636;11.752;2024-03-17T00:32:52;12.30;99.90
78054;DHT22;67726;45.636;11.752;2024-03-17T00:35:17;12.40;99.90
78054;DHT22;67726;45.636;11.752;2024-03-17T00:37:49;12.20;99.90
78054;DHT22;67726;45.636;11.752;2024-03-17T00:40:16;12.40;99.90
78054;DHT22;67726;45.636;11.752;2024-03-17T00:42:43;12.30;99.90
78054;DHT22;67726;45.636;11.752;2024-03-17T00:45:10;12.40;99.90
78054;DHT22;67726;45.636;11.752;2024-03-17T00:47:37;12.40;99.90
78054;DHT22;67726;45.636;11.752;2024-03-17T00:50:03;12.40;99.90
78054;DHT22;67726;45.636;11.752;2024-03-17T00:52:29;12.40;99.90
78054;DHT22;67726;45.636;11.752;2024-03-17T00:54:55;12.40;99.90
78054;DHT22;67726;45.636;11.752;2024-03-17T00:57:21;12.40;99.90
78054;DHT22;67726;45.636;11.752;2024-03-17T00:59:46;12.40;99.90
78054;DHT22;67726;45.636;11.752;2024-03-17T01:02:12;12.40;99.90
78054;DHT22;67726;45.636;11.752;2024-03-17T01:04:42;12.30;99.90
78054;DHT22;67726;45.636;11.752;2024-03-17T01:07:08;12.40;99.90
78054;DHT22;67726;45.636;11.752;2024-03-17T01:09:34;12.20;99.90
78054;DHT22;67726;45.636;11.752;2024-03-17T01:12:00;12.20;99.90
78054;DHT22;67726;45.636;11.752;2024-03-17T01:14:27;12.20;99.90
78054;DHT22;67726;45.636;11.752;2024-03-17T01:16:53;12.10;99.90
78054;DHT22;67726;45.636;11.752;2024-03-17T01:19:18;12.10;99.90
78054;DHT22;67726;45.636;11.752;2024-03-17T01:21:44;12.00;99.90
78054;DHT22;67726;45.636;11.752;2024-03-17T01:24:10;12.10;99.90
78054;DHT22;67726;45.636;11.752;2024-03-17T01:26:35;11.90;99.90
78054;DHT22;67726;45.636;11.752;2024-03-17T01:29:01;11.80;99.90
78054;DHT22;67726;45.636;11.752;2024-03-17T01:31:27;11.80;99.90
78054;DHT22;67726;45.636;11.752;2024-03-17T01:33:53;11.70;99.90
78054;DHT22;67726;45.636;11.752;2024-03-17T01:36:18;11.70;99.90
78054;DHT22;67726;45.636;11.752;2024-03-17T01:38:44;11.60;99.90
78054;DHT22;67726;45.636;11.752;2024-03-17T01:41:10;11.70;99.90
78054;DHT22;67726;45.636;11.752;2024-03-17T01:43:35;11.70;99.90
78054;DHT22;67726;45.636;11.752;2024-03-17T01:46:01;11.60;99.90
78054;DHT22;67726;45.636;11.752;2024-03-17T01:48:28;11.60;99.90
78054;DHT22;67726;45.636;11.752;2024-03-17T01:50:55;11.70;99.90
78054;DHT22;67726;45.636;11.752;2024-03-17T01:53:22;11.50;99.90
78054;DHT22;67726;45.636;11.752;2024-03-17T01:55:51;11.70;99.90
78054;DHT22;67726;45.636;11.752;2024-03-17T01:58:20;11.70;99.90
78054;DHT22;67726;45.636;11.752;2024-03-17T02:00:46;11.50;99.90
78054;DHT22;67726;45.636;11.752;2024-03-17T02:03:12;11.60;99.90
78054;DHT22;67726;45.636;11.752;2024-03-17T02:05:38;11.50;99.90
78054;DHT22;67726;45.636;11.752;2024-03-17T02:08:07;11.50;99.90
78054;DHT22;67726;45.636;11.752;2024-03-17T02:10:34;11.50;99.90
78054;DHT22;67726;45.636;11.752;2024-03-17T02:13:00;11.60;99.90
78054;DHT22;67726;45.636;11.752;2024-03-17T02:15:26;11.50;99.90
78054;DHT22;67726;45.636;11.752;2024-03-17T02:17:52;11.50;99.90
78054;DHT22;67726;45.636;11.752;2024-03-17T02:20:17;11.50;99.90
78054;DHT22;67726;45.636;11.752;2024-03-17T02:22:43;11.50;99.90
78054;DHT22;67726;45.636;11.752;2024-03-17T02:25:09;11.40;99.90
78054;DHT22;67726;45.636;11.752;2024-03-17T02:27:38;11.50;99.90
78054;DHT22;67726;45.636;11.752;2024-03-17T02:30:04;11.40;99.90
78054;DHT22;67726;45.636;11.752;2024-03-17T02:32:34;11.40;99.90
78054;DHT22;67726;45.636;11.752;2024-03-17T02:34:59;11.40;99.90
78054;DHT22;67726;45.636;11.752;2024-03-17T02:37:25;11.40;99.90
78054;DHT22;67726;45.636;11.752;2024-03-17T02:39:51;11.40;99.90
78054;DHT22;67726;45.636;11.752;2024-03-17T02:42:16;11.40;99.90
78054;DHT22;67726;45.636;11.752;2024-03-17T02:44:42;11.30;99.90
78054;DHT22;67726;45.636;11.752;2024-03-17T02:47:07;11.30;99.90
78054;DHT22;67726;45.636;11.752;2024-03-17T02:49:36;11.30;99.90
78054;DHT22;67726;45.636;11.752;2024-03-17T02:52:07;11.30;99.90
78054;DHT22;67726;45.636;11.752;2024-03-17T02:54:35;11.40;99.90
78054;DHT22;67726;45.636;11.752;2024-03-17T02:57:02;11.20;99.90
78054;DHT22;67726;45.636;11.752;2024-03-17T02:59:28;11.20;99.90
78054;DHT22;67726;45.636;11.752;2024-03-17T03:01:53;11.20;99.90
78054;DHT22;67726;45.636;11.752;2024-03-17T03:04:20;11.20;99.90
78054;DHT22;67726;45.636;11.752;2024-03-17T03:06:45;11.20;99.90
78054;DHT22;67726;45.636;11.752;2024-03-17T03:09:11;11.20;99.90
78054;DHT22;67726;45.636;11.752;2024-03-17T03:11:41;11.10;99.90
78054;DHT22;67726;45.636;11.752;2024-03-17T03:14:08;11.00;99.90
78054;DHT22;67726;45.636;11.752;2024-03-17T03:16:33;11.10;99.90
78054;DHT22;67726;45.636;11.752;2024-03-17T03:18:59;11.00;99.90
78054;DHT22;67726;45.636;11.752;2024-03-17T03:21:25;11.10;99.90
78054;DHT22;67726;45.636;11.752;2024-03-17T03:23:51;11.20;99.90
78054;DHT22;67726;45.636;11.752;2024-03-17T03:26:17;11.00;99.90
78054;DHT22;67726;45.636;11.752;2024-03-17T03:28:43;11.00;99.90
78054;DHT22;67726;45.636;11.752;2024-03-17T03:31:13;11.00;99.90
78054;DHT22;67726;45.636;11.752;2024-03-17T03:33:42;11.00;99.90
78054;DHT22;67726;45.636;11.752;2024-03-17T03:36:11;11.00;99.90
78054;DHT22;67726;45.636;11.752;2024-03-17T03:38:37;10.90;99.90
78054;DHT22;67726;45.636;11.752;2024-03-17T03:41:23;10.90;99.90
78054;DHT22;67726;45.636;11.752;2024-03-17T03:43:49;10.90;99.90
78054;DHT22;67726;45.636;11.752;2024-03-17T03:46:14;10.80;99.90
78054;DHT22;67726;45.636;11.752;2024-03-17T03:48:40;10.70;99.90
78054;DHT22;67726;45.636;11.752;2024-03-17T03:51:07;10.60;99.90
78054;DHT22;67726;45.636;11.752;2024-03-17T03:53:33;10.60;99.90
78054;DHT22;67726;45.636;11.752;2024-03-17T03:56:00;10.50;99.90
78054;DHT22;67726;45.636;11.752;2024-03-17T03:58:40;10.60;99.90
78054;DHT22;67726;45.636;11.752;2024-03-17T04:01:06;10.60;99.90
78054;DHT22;67726;45.636;11.752;2024-03-17T04:03:35;10.60;99.90
78054;DHT22;67726;45.636;11.752;2024-03-17T04:06:09;10.60;99.90
78054;DHT22;67726;45.636;11.752;2024-03-17T04:08:37;10.60;99.90
78054;DHT22;67726;45.636;11.752;2024-03-17T04:11:05;10.50;99.90
78054;DHT22;67726;45.636;11.752;2024-03-17T04:13:31;10.60;99.90
78054;DHT22;67726;45.636;11.752;2024-03-17T04:15:57;10.50;99.90
78054;DHT22;67726;45.636;11.752;2024-03-17T04:18:24;10.50;99.90
78054;DHT22;67726;45.636;11.752;2024-03-17T04:20:53;10.60;99.90
78054;DHT22;67726;45.636;11.752;2024-03-17T04:23:22;10.50;99.90
78054;DHT22;67726;45.636;11.752;2024-03-17T04:25:50;10.50;99.90
78054;DHT22;67726;45.636;11.752;2024-03-17T04:28:15;10.40;99.90
78054;DHT22;67726;45.636;11.752;2024-03-17T04:30:42;10.50;99.90
78054;DHT22;67726;45.636;11.752;2024-03-17T04:33:09;10.50;99.90
78054;DHT22;67726;45.636;11.752;2024-03-17T04:35:36;10.30;99.90
78054;DHT22;67726;45.636;11.752;2024-03-17T04:38:02;10.40;99.90
78054;DHT22;67726;45.636;11.752;2024-03-17T04:40:27;10.40;99.90
78054;DHT22;67726;45.636;11.752;2024-03-17T04:42:53;10.30;99.90
78054;DHT22;67726;45.636;11.752;2024-03-17T04:45:18;10.40;99.90
78054;DHT22;67726;45.636;11.752;2024-03-17T04:47:44;10.40;99.90
78054;DHT22;67726;45.636;11.752;2024-03-17T04:50:10;10.40;99.90
78054;DHT22;67726;45.636;11.752;2024-03-17T04:52:37;10.40;99.90
78054;DHT22;67726;45.636;11.752;2024-03-17T04:55:03;10.30;99.90
78054;DHT22;67726;45.636;11.752;2024-03-17T04:57:29;10.20;99.90
78054;DHT22;67726;45.636;11.752;2024-03-17T04:59:55;10.20;99.90
78054;DHT22;67726;45.636;11.752;2024-03-17T05:02:20;10.10;99.90
78054;DHT22;67726;45.636;11.752;2024-03-17T05:04:48;10.00;99.90
78054;DHT22;67726;45.636;11.752;2024-03-17T05:07:14;10.10;99.90
78054;DHT22;67726;45.636;11.752;2024-03-17T05:09:39;10.10;99.90
78054;DHT22;67726;45.636;11.752;2024-03-17T05:12:05;10.00;99.90
78054;DHT22;67726;45.636;11.752;2024-03-17T05:14:31;10.00;99.90
78054;DHT22;67726;45.636;11.752;2024-03-17T05:16:56;9.90;99.90
78054;DHT22;67726;45.636;11.752;2024-03-17T05:19:22;9.90;99.90
78054;DHT22;67726;45.636;11.752;2024-03-17T05:21:48;9.90;99.90
78054;DHT22;67726;45.636;11.752;2024-03-17T05:24:14;9.80;99.90
78054;DHT22;67726;45.636;11.752;2024-03-17T05:26:40;9.90;99.90
78054;DHT22;67726;45.636;11.752;2024-03-17T05:29:07;9.90;99.90
78054;DHT22;67726;45.636;11.752;2024-03-17T05:31:33;9.90;99.90
78054;DHT22;67726;45.636;11.752;2024-03-17T05:33:59;9.90;99.90
78054;DHT22;67726;45.636;11.752;2024-03-17T05:36:25;9.90;99.90
78054;DHT22;67726;45.636;11.752;2024-03-17T05:38:50;9.90;99.90
78054;DHT22;67726;45.636;11.752;2024-03-17T05:41:16;9.90;99.90
78054;DHT22;67726;45.636;11.752;2024-03-17T05:43:41;9.90;99.90
78054;DHT22;67726;45.636;11.752;2024-03-17T05:46:12;9.90;99.90
78054;DHT22;67726;45.636;11.752;2024-03-17T05:48:41;10.00;99.90
78054;DHT22;67726;45.636;11.752;2024-03-17T05:51:08;10.00;99.90
78054;DHT22;67726;45.636;11.752;2024-03-17T05:53:35;10.10;99.90
78054;DHT22;67726;45.636;11.752;2024-03-17T05:56:02;10.20;99.90
78054;DHT22;67726;45.636;11.752;2024-03-17T05:58:28;10.30;99.90
78054;DHT22;67726;45.636;11.752;2024-03-17T06:00:54;10.40;99.90
78054;DHT22;67726;45.636;11.752;2024-03-17T06:03:20;10.50;99.90
78054;DHT22;67726;45.636;11.752;2024-03-17T06:05:47;10.60;99.90
78054;DHT22;67726;45.636;11.752;2024-03-17T06:08:13;10.70;99.90
78054;DHT22;67726;45.636;11.752;2024-03-17T06:10:44;10.80;99.90
78054;DHT22;67726;45.636;11.752;2024-03-17T06:13:09;11.00;99.90
78054;DHT22;67726;45.636;11.752;2024-03-17T06:15:39;11.20;99.90
78054;DHT22;67726;45.636;11.752;2024-03-17T06:18:05;11.40;99.90
78054;DHT22;67726;45.636;11.752;2024-03-17T06:20:34;11.50;99.90
78054;DHT22;67726;45.636;11.752;2024-03-17T06:23:00;11.60;99.90
78054;DHT22;67726;45.636;11.752;2024-03-17T06:25:26;11.90;99.90
78054;DHT22;67726;45.636;11.752;2024-03-17T06:27:53;12.10;99.90
78054;DHT22;67726;45.636;11.752;2024-03-17T06:30:19;12.30;99.90
78054;DHT22;67726;45.636;11.752;2024-03-17T06:32:46;12.40;99.90
78054;DHT22;67726;45.636;11.752;2024-03-17T06:35:13;12.70;99.90
78054;DHT22;67726;45.636;11.752;2024-03-17T06:37:43;12.80;99.90
78054;DHT22;67726;45.636;11.752;2024-03-17T06:40:13;13.00;99.90
78054;DHT22;67726;45.636;11.752;2024-03-17T06:42:39;13.10;99.90
78054;DHT22;67726;45.636;11.752;2024-03-17T06:45:05;13.20;99.90
78054;DHT22;67726;45.636;11.752;2024-03-17T06:47:31;13.30;99.90
78054;DHT22;67726;45.636;11.752;2024-03-17T06:49:56;13.40;99.90
78054;DHT22;67726;45.636;11.752;2024-03-17T06:52:22;13.60;99.90
78054;DHT22;67726;45.636;11.752;2024-03-17T06:54:48;13.80;99.90
78054;DHT22;67726;45.636;11.752;2024-03-17T06:57:16;14.00;99.90
78054;DHT22;67726;45.636;11.752;2024-03-17T06:59:42;14.10;99.90
78054;DHT22;67726;45.636;11.752;2024-03-17T07:02:10;14.10;99.90
78054;DHT22;67726;45.636;11.752;2024-03-17T07:04:38;14.10;99.90
78054;DHT22;67726;45.636;11.752;2024-03-17T07:07:03;14.20;99.90
78054;DHT22;67726;45.636;11.752;2024-03-17T07:09:29;14.30;99.90
78054;DHT22;67726;45.636;11.752;2024-03-17T07:11:54;14.60;99.90
78054;DHT22;67726;45.636;11.752;2024-03-17T07:14:20;14.60;99.90
78054;DHT22;67726;45.636;11.752;2024-03-17T07:16:45;14.90;99.90
78054;DHT22;67726;45.636;11.752;2024-03-17T07:19:11;15.00;99.90
78054;DHT22;67726;45.636;11.752;2024-03-17T07:21:36;15.00;99.90
78054;DHT22;67726;45.636;11.752;2024-03-17T07:24:03;15.10;99.90
78054;DHT22;67726;45.636;11.752;2024-03-17T07:26:30;15.00;99.90
78054;DHT22;67726;45.636;11.752;2024-03-17T07:28:56;15.00;99.90
78054;DHT22;67726;45.636;11.752;2024-03-17T07:31:21;14.90;99.90
78054;DHT22;67726;45.636;11.752;2024-03-17T07:33:47;14.90;99.90
78054;DHT22;67726;45.636;11.752;2024-03-17T07:36:13;14.90;99.90
78054;DHT22;67726;45.636;11.752;2024-03-17T07:38:39;14.80;99.90
78054;DHT22;67726;45.636;11.752;2024-03-17T07:41:07;14.90;99.90
78054;DHT22;67726;45.636;11.752;2024-03-17T07:43:39;14.90;99.90
78054;DHT22;67726;45.636;11.752;2024-03-17T07:46:09;14.90;99.90
78054;DHT22;67726;45.636;11.752;2024-03-17T07:48:39;14.90;99.90
78054;DHT22;67726;45.636;11.752;2024-03-17T07:53:35;15.10;99.90
78054;DHT22;67726;45.636;11.752;2024-03-17T07:58:29;15.10;99.90
78054;DHT22;67726;45.636;11.752;2024-03-17T08:00:59;15.10;99.90
78054;DHT22;67726;45.636;11.752;2024-03-17T08:03:25;15.00;99.90
78054;DHT22;67726;45.636;11.752;2024-03-17T08:05:52;15.10;99.90
78054;DHT22;67726;45.636;11.752;2024-03-17T08:08:18;15.10;99.90
78054;DHT22;67726;45.636;11.752;2024-03-17T08:10:44;15.20;99.90
78054;DHT22;67726;45.636;11.752;2024-03-17T08:13:10;15.30;99.90
78054;DHT22;67726;45.636;11.752;2024-03-17T08:15:35;15.60;99.90
78054;DHT22;67726;45.636;11.752;2024-03-17T08:18:02;15.80;99.90
78054;DHT22;67726;45.636;11.752;2024-03-17T08:20:29;15.90;99.90
78054;DHT22;67726;45.636;11.752;2024-03-17T08:22:55;16.00;99.90
78054;DHT22;67726;45.636;11.752;2024-03-17T08:25:20;16.20;99.90
78054;DHT22;67726;45.636;11.752;2024-03-17T08:27:46;16.40;99.90
78054;DHT22;67726;45.636;11.752;2024-03-17T08:30:12;16.50;99.40
78054;DHT22;67726;45.636;11.752;2024-03-17T08:32:38;16.60;99.90
78054;DHT22;67726;45.636;11.752;2024-03-17T08:35:05;16.90;98.90
78054;DHT22;67726;45.636;11.752;2024-03-17T08:37:31;17.10;99.80
78054;DHT22;67726;45.636;11.752;2024-03-17T08:39:57;17.40;99.30
78054;DHT22;67726;45.636;11.752;2024-03-17T08:42:23;17.70;99.10
78054;DHT22;67726;45.636;11.752;2024-03-17T08:44:48;18.10;98.90
78054;DHT22;67726;45.636;11.752;2024-03-17T08:47:14;18.40;97.40
78054;DHT22;67726;45.636;11.752;2024-03-17T08:49:40;18.70;97.50
78054;DHT22;67726;45.636;11.752;2024-03-17T08:52:06;19.00;96.50
78054;DHT22;67726;45.636;11.752;2024-03-17T08:54:32;19.30;94.00
78054;DHT22;67726;45.636;11.752;2024-03-17T08:56:58;19.60;95.20
78054;DHT22;67726;45.636;11.752;2024-03-17T08:59:23;19.80;89.40
78054;DHT22;67726;45.636;11.752;2024-03-17T09:01:49;20.40;94.10
78054;DHT22;67726;45.636;11.752;2024-03-17T09:04:14;20.80;83.70
78054;DHT22;67726;45.636;11.752;2024-03-17T09:06:40;20.90;87.90
78054;DHT22;67726;45.636;11.752;2024-03-17T09:09:07;20.80;88.10
78054;DHT22;67726;45.636;11.752;2024-03-17T09:11:33;20.70;82.30
78054;DHT22;67726;45.636;11.752;2024-03-17T09:13:59;20.70;85.40
78054;DHT22;67726;45.636;11.752;2024-03-17T09:16:24;20.70;83.80
78054;DHT22;67726;45.636;11.752;2024-03-17T09:18:51;20.70;82.10
78054;DHT22;67726;45.636;11.752;2024-03-17T09:21:17;20.50;82.50
78054;DHT22;67726;45.636;11.752;2024-03-17T09:23:43;20.80;82.40
78054;DHT22;67726;45.636;11.752;2024-03-17T09:26:09;21.20;85.00
78054;DHT22;67726;45.636;11.752;2024-03-17T09:28:37;21.50;81.20
78054;DHT22;67726;45.636;11.752;2024-03-17T09:31:03;21.90;81.80
78054;DHT22;67726;45.636;11.752;2024-03-17T09:33:34;22.40;81.40
78054;DHT22;67726;45.636;11.752;2024-03-17T09:36:05;23.00;81.60
78054;DHT22;67726;45.636;11.752;2024-03-17T09:38:32;23.40;78.30
78054;DHT22;67726;45.636;11.752;2024-03-17T09:40:58;23.60;77.20
78054;DHT22;67726;45.636;11.752;2024-03-17T09:43:26;23.70;76.00
78054;DHT22;67726;45.636;11.752;2024-03-17T09:45:52;23.90;76.40
78054;DHT22;67726;45.636;11.752;2024-03-17T09:48:20;24.10;76.10
78054;DHT22;67726;45.636;11.752;2024-03-17T09:53:16;24.70;68.50
78054;DHT22;67726;45.636;11.752;2024-03-17T09:55:43;24.90;70.50
78054;DHT22;67726;45.636;11.752;2024-03-17T09:58:15;24.90;69.60
78054;DHT22;67726;45.636;11.752;2024-03-17T10:00:42;25.10;67.80
78054;DHT22;67726;45.636;11.752;2024-03-17T10:03:07;25.40;68.80
78054;DHT22;67726;45.636;11.752;2024-03-17T10:05:33;25.70;66.90
78054;DHT22;67726;45.636;11.752;2024-03-17T10:07:59;26.00;67.00
78054;DHT22;67726;45.636;11.752;2024-03-17T10:10:25;26.30;65.20
78054;DHT22;67726;45.636;11.752;2024-03-17T10:12:51;26.50;61.30
78054;DHT22;67726;45.636;11.752;2024-03-17T10:15:18;26.60;62.30
78054;DHT22;67726;45.636;11.752;2024-03-17T10:17:44;26.40;60.40
78054;DHT22;67726;45.636;11.752;2024-03-17T10:20:17;26.40;59.20
78054;DHT22;67726;45.636;11.752;2024-03-17T10:25:28;25.70;60.80
78054;DHT22;67726;45.636;11.752;2024-03-17T10:27:54;25.90;61.40
78054;DHT22;67726;45.636;11.752;2024-03-17T10:30:21;25.70;60.80
78054;DHT22;67726;45.636;11.752;2024-03-17T10:33:06;25.50;61.50
78054;DHT22;67726;45.636;11.752;2024-03-17T10:35:35;25.30;60.30
78054;DHT22;67726;45.636;11.752;2024-03-17T10:38:04;24.60;59.50
78054;DHT22;67726;45.636;11.752;2024-03-17T10:40:32;23.60;61.70
78054;DHT22;67726;45.636;11.752;2024-03-17T10:43:01;23.40;66.20
78054;DHT22;67726;45.636;11.752;2024-03-17T10:45:28;23.60;66.10
78054;DHT22;67726;45.636;11.752;2024-03-17T10:47:59;23.90;65.30
78054;DHT22;67726;45.636;11.752;2024-03-17T10:50:28;24.20;63.80
78054;DHT22;67726;45.636;11.752;2024-03-17T10:52:57;24.40;64.40
78054;DHT22;67726;45.636;11.752;2024-03-17T10:55:25;24.40;63.60
78054;DHT22;67726;45.636;11.752;2024-03-17T10:57:52;24.70;62.60
78054;DHT22;67726;45.636;11.752;2024-03-17T11:00:22;24.70;63.50
78054;DHT22;67726;45.636;11.752;2024-03-17T11:02:52;24.40;62.30
78054;DHT22;67726;45.636;11.752;2024-03-17T11:05:23;24.00;64.40
78054;DHT22;67726;45.636;11.752;2024-03-17T11:07:53;23.50;66.80
78054;DHT22;67726;45.636;11.752;2024-03-17T11:10:28;23.20;68.60
78054;DHT22;67726;45.636;11.752;2024-03-17T11:12:56;23.20;69.70
78054;DHT22;67726;45.636;11.752;2024-03-17T11:20:41;23.00;71.40
78054;DHT22;67726;45.636;11.752;2024-03-17T11:23:07;22.80;72.10
78054;DHT22;67726;45.636;11.752;2024-03-17T11:25:38;22.60;73.20
78054;DHT22;67726;45.636;11.752;2024-03-17T11:28:06;22.30;74.40
78054;DHT22;67726;45.636;11.752;2024-03-17T11:39:05;22.60;74.70
78054;DHT22;67726;45.636;11.752;2024-03-17T11:46:45;22.60;73.90
78054;DHT22;67726;45.636;11.752;2024-03-17T11:51:46;22.20;74.50
78054;DHT22;67726;45.636;11.752;2024-03-17T11:54:15;22.20;74.30
78054;DHT22;67726;45.636;11.752;2024-03-17T11:56:53;22.20;74.80
78054;DHT22;67726;45.636;11.752;2024-03-17T11:59:20;22.40;74.60
78054;DHT22;67726;45.636;11.752;2024-03-17T12:01:47;22.50;75.00
78054;DHT22;67726;45.636;11.752;2024-03-17T12:04:17;22.60;74.40
78054;DHT22;67726;45.636;11.752;2024-03-17T12:06:47;22.70;74.50
78054;DHT22;67726;45.636;11.752;2024-03-17T12:09:21;22.80;74.40
78054;DHT22;67726;45.636;11.752;2024-03-17T12:11:51;23.00;73.80
78054;DHT22;67726;45.636;11.752;2024-03-17T12:14:19;22.90;73.60
78054;DHT22;67726;45.636;11.752;2024-03-17T12:16:53;23.20;70.60
78054;DHT22;67726;45.636;11.752;2024-03-17T12:19:19;23.50;70.80
78054;DHT22;67726;45.636;11.752;2024-03-17T12:21:50;23.50;71.30
78054;DHT22;67726;45.636;11.752;2024-03-17T12:24:20;23.70;67.80
78054;DHT22;67726;45.636;11.752;2024-03-17T12:26:47;24.00;67.10
78054;DHT22;67726;45.636;11.752;2024-03-17T12:31:53;24.30;65.10
78054;DHT22;67726;45.636;11.752;2024-03-17T12:34:19;23.90;66.30
78054;DHT22;67726;45.636;11.752;2024-03-17T12:36:46;24.20;66.90
78054;DHT22;67726;45.636;11.752;2024-03-17T12:39:20;24.60;64.30
78054;DHT22;67726;45.636;11.752;2024-03-17T12:44:28;23.80;65.40
78054;DHT22;67726;45.636;11.752;2024-03-17T12:47:02;23.80;66.80
78054;DHT22;67726;45.636;11.752;2024-03-17T12:49:29;23.90;65.60
78054;DHT22;67726;45.636;11.752;2024-03-17T12:51:55;24.00;64.20
78054;DHT22;67726;45.636;11.752;2024-03-17T12:54:26;23.90;64.50
78054;DHT22;67726;45.636;11.752;2024-03-17T12:57:13;24.00;64.70
78054;DHT22;67726;45.636;11.752;2024-03-17T12:59:56;24.20;64.90
78054;DHT22;67726;45.636;11.752;2024-03-17T13:02:44;24.00;65.00
78054;DHT22;67726;45.636;11.752;2024-03-17T13:05:17;24.20;65.80
78054;DHT22;67726;45.636;11.752;2024-03-17T13:07:44;24.30;64.30
78054;DHT22;67726;45.636;11.752;2024-03-17T13:10:13;24.40;64.90
78054;DHT22;67726;45.636;11.752;2024-03-17T13:12:39;24.10;64.60
78054;DHT22;67726;45.636;11.752;2024-03-17T13:15:05;24.20;65.60
78054;DHT22;67726;45.636;11.752;2024-03-17T13:17:31;24.30;65.70
78054;DHT22;67726;45.636;11.752;2024-03-17T13:20:00;24.20;65.40
78054;DHT22;67726;45.636;11.752;2024-03-17T13:22:26;24.20;64.80
78054;DHT22;67726;45.636;11.752;2024-03-17T13:24:51;24.20;64.20
78054;DHT22;67726;45.636;11.752;2024-03-17T13:27:17;23.90;63.80
78054;DHT22;67726;45.636;11.752;2024-03-17T13:29:48;23.70;64.80
78054;DHT22;67726;45.636;11.752;2024-03-17T13:32:13;23.80;66.60
78054;DHT22;67726;45.636;11.752;2024-03-17T13:34:39;23.90;66.40
78054;DHT22;67726;45.636;11.752;2024-03-17T13:37:05;23.90;65.80
78054;DHT22;67726;45.636;11.752;2024-03-17T13:39:31;23.80;64.40
78054;DHT22;67726;45.636;11.752;2024-03-17T13:41:59;23.80;65.80
78054;DHT22;67726;45.636;11.752;2024-03-17T13:44:32;23.90;66.10
78054;DHT22;67726;45.636;11.752;2024-03-17T13:46:59;24.10;64.60
78054;DHT22;67726;45.636;11.752;2024-03-17T13:49:29;24.20;64.30
78054;DHT22;67726;45.636;11.752;2024-03-17T13:51:54;24.10;62.60
78054;DHT22;67726;45.636;11.752;2024-03-17T13:54:20;24.10;63.30
78054;DHT22;67726;45.636;11.752;2024-03-17T13:56:49;23.90;64.70
78054;DHT22;67726;45.636;11.752;2024-03-17T13:59:15;24.00;64.90
78054;DHT22;67726;45.636;11.752;2024-03-17T14:01:42;24.00;64.30
78054;DHT22;67726;45.636;11.752;2024-03-17T14:04:16;24.10;64.60
78054;DHT22;67726;45.636;11.752;2024-03-17T14:06:46;24.10;64.10
78054;DHT22;67726;45.636;11.752;2024-03-17T14:09:12;23.80;63.80
78054;DHT22;67726;45.636;11.752;2024-03-17T14:11:38;23.60;65.90
78054;DHT22;67726;45.636;11.752;2024-03-17T14:14:05;23.20;67.20
78054;DHT22;67726;45.636;11.752;2024-03-17T14:16:31;23.30;68.10
78054;DHT22;67726;45.636;11.752;2024-03-17T14:18:58;23.10;68.30
78054;DHT22;67726;45.636;11.752;2024-03-17T14:21:26;23.20;69.10
78054;DHT22;67726;45.636;11.752;2024-03-17T14:23:52;23.00;69.50
78054;DHT22;67726;45.636;11.752;2024-03-17T14:26:18;22.90;70.20
78054;DHT22;67726;45.636;11.752;2024-03-17T14:28:43;22.60;70.40
78054;DHT22;67726;45.636;11.752;2024-03-17T14:31:10;22.20;72.70
78054;DHT22;67726;45.636;11.752;2024-03-17T14:33:37;22.00;74.20
78054;DHT22;67726;45.636;11.752;2024-03-17T14:36:02;22.10;73.80
78054;DHT22;67726;45.636;11.752;2024-03-17T14:38:28;22.10;73.80
78054;DHT22;67726;45.636;11.752;2024-03-17T14:40:54;22.10;73.80
78054;DHT22;67726;45.636;11.752;2024-03-17T14:43:20;22.00;74.40
78054;DHT22;67726;45.636;11.752;2024-03-17T14:45:46;21.80;74.80
78054;DHT22;67726;45.636;11.752;2024-03-17T14:48:12;21.90;75.30
78054;DHT22;67726;45.636;11.752;2024-03-17T14:50:41;21.80;75.00
78054;DHT22;67726;45.636;11.752;2024-03-17T14:53:07;21.50;75.60
78054;DHT22;67726;45.636;11.752;2024-03-17T14:55:33;21.40;75.90
78054;DHT22;67726;45.636;11.752;2024-03-17T14:57:59;21.30;76.40
78054;DHT22;67726;45.636;11.752;2024-03-17T15:00:32;21.10;77.00
78054;DHT22;67726;45.636;11.752;2024-03-17T15:02:58;21.20;76.80
78054;DHT22;67726;45.636;11.752;2024-03-17T15:05:24;21.10;77.30
78054;DHT22;67726;45.636;11.752;2024-03-17T15:07:51;21.00;78.30
78054;DHT22;67726;45.636;11.752;2024-03-17T15:10:17;20.80;80.70
78054;DHT22;67726;45.636;11.752;2024-03-17T15:12:49;20.70;81.30
78054;DHT22;67726;45.636;11.752;2024-03-17T15:15:15;20.50;82.80
78054;DHT22;67726;45.636;11.752;2024-03-17T15:17:40;20.40;84.10
78054;DHT22;67726;45.636;11.752;2024-03-17T15:20:06;20.30;84.60
78054;DHT22;67726;45.636;11.752;2024-03-17T15:22:45;20.30;84.30
78054;DHT22;67726;45.636;11.752;2024-03-17T15:25:11;20.20;85.90
78054;DHT22;67726;45.636;11.752;2024-03-17T15:27:38;20.10;86.70
78054;DHT22;67726;45.636;11.752;2024-03-17T15:30:05;20.00;86.30
78054;DHT22;67726;45.636;11.752;2024-03-17T15:32:31;20.00;88.10
78054;DHT22;67726;45.636;11.752;2024-03-17T15:34:57;20.00;88.40
78054;DHT22;67726;45.636;11.752;2024-03-17T15:37:24;19.80;89.20
78054;DHT22;67726;45.636;11.752;2024-03-17T15:39:50;19.90;89.00
78054;DHT22;67726;45.636;11.752;2024-03-17T15:42:15;19.90;89.30
78054;DHT22;67726;45.636;11.752;2024-03-17T15:44:42;19.90;89.00
78054;DHT22;67726;45.636;11.752;2024-03-17T15:47:08;19.90;89.00
78054;DHT22;67726;45.636;11.752;2024-03-17T15:49:34;19.80;88.30
78054;DHT22;67726;45.636;11.752;2024-03-17T15:51:59;19.90;88.70
78054;DHT22;67726;45.636;11.752;2024-03-17T15:54:25;19.90;89.40